Date,TemperatureHighF,TemperatureAvgF,TemperatureLowF,DewpointHighF,DewpointAvgF,DewpointLowF,HumidityHigh,HumidityAvg,HumidityLow,PressureMaxIn,PressureMinIn,WindSpeedMaxMPH,WindSpeedAvgMPH,GustSpeedMaxMPH,PrecipitationSumIn
2013-1-1,28,16,11,24,15,11,100,99,85,29.44,29.41,8,0,8,0.00
2013-1-2,35,22,10,34,20,10,100,92,79,29.44,29.29,11,4,11,0.00
2013-1-3,43,29,21,39,27,21,100,94,79,29.59,29.38,8,1,8,0.00
2013-1-4,43,31,18,39,28,18,100,90,79,29.56,29.41,13,4,13,0.00
2013-1-5,42,35,28,38,32,27,100,89,79,29.41,29.26,16,7,16,0.00
2013-1-6,43,29,21,38,26,20,100,91,79,29.56,29.35,13,3,13,0.00
2013-1-7,51,35,22,42,31,21,97,87,73,29.50,29.23,16,7,16,0.00
2013-1-8,54,42,30,45,36,26,91,80,67,29.38,29.21,18,7,18,0.00
2013-1-9,40,37,35,37,35,33,100,95,85,29.44,29.38,7,1,7,0.00
2013-1-11,61,58,49,50,46,43,100,65,61,28.94,28.82,21,10,21,0.00
2013-1-12,59,36,22,46,31,21,100,82,61,29.29,28.94,13,5,13,0.00
2013-1-13,27,18,11,24,18,11,100,97,85,29.56,29.26,11,4,11,0.00
2013-1-14,33,15,8,29,14,8,100,97,85,29.74,29.59,6,1,6,0.00
2013-1-16,44,35,31,39,30,27,91,83,79,29.41,29.29,11,2,11,0.00
2013-1-17,48,35,29,42,32,26,100,90,73,29.74,29.38,11,3,11,0.00
2013-1-18,56,42,29,45,36,25,97,79,67,29.68,29.29,28,10,28,0.00
2013-1-19,63,48,40,49,41,36,85,78,55,29.50,29.23,19,7,19,0.00
2013-1-20,41,29,21,37,26,20,97,89,79,29.65,29.50,14,4,14,0.00
2013-1-21,26,18,12,24,18,12,100,97,91,29.71,29.65,14,3,14,0.00
2013-1-22,32,20,12,28,19,12,100,95,85,29.71,29.56,9,3,9,0.00
2013-1-23,53,29,11,44,26,11,100,89,73,29.71,29.47,10,2,10,0.00
2013-1-24,25,16,10,22,16,10,100,98,91,29.83,29.71,15,6,15,0.00
2013-1-26,57,46,34,46,40,28,91,79,67,29.65,29.44,11,3,11,0.00
2013-1-27,62,50,38,53,43,35,100,78,61,29.47,29.15,27,9,27,0.00
2013-1-28,74,65,56,60,52,47,100,68,43,29.23,29.12,26,8,26,0.00
2013-1-29,67,65,36,55,49,36,100,56,49,29.12,28.91,18,11,18,0.00
2013-1-30,37,28,22,37,26,21,100,93,85,29.41,28.88,21,7,21,0.00
2013-1-31,27,18,7,24,18,7,100,97,85,29.91,29.38,23,5,23,0.00
2013-2-1,28,17,4,24,16,4,100,95,85,29.91,29.62,12,3,12,0.00
2013-2-2,49,36,24,42,32,22,97,87,73,29.68,29.53,10,3,10,0.00
2013-2-3,50,38,32,42,34,28,97,87,73,29.77,29.35,14,5,14,0.00
2013-2-4,51,39,22,43,35,22,100,85,73,29.53,29.29,13,4,13,0.00
2013-2-5,60,39,21,46,35,21,100,85,61,29.65,29.44,15,3,15,0.00
2013-2-6,62,46,31,48,39,28,97,78,61,29.68,29.47,17,6,17,0.00
2013-2-7,50,45,44,46,43,38,100,94,73,29.50,29.44,12,5,12,0.00
2013-2-11,52,38,27,43,33,24,100,83,73,29.80,29.56,11,3,11,0.00
2013-2-12,42,37,25,38,34,25,100,87,79,29.80,29.62,6,0,6,0.00
2013-2-13,57,41,27,46,36,26,100,84,61,29.62,29.47,13,4,13,0.00
2013-2-14,38,36,34,36,33,28,97,90,79,29.53,29.50,6,3,6,0.00
2013-2-16,33,32,32,29,28,28,85,85,85,29.80,29.77,8,5,8,0.00
2013-2-17,33,33,33,29,29,29,85,85,85,29.77,29.77,9,5,9,0.00
2013-2-19,37,27,20,35,24,19,97,90,79,30.00,29.77,19,5,19,0.00
2013-2-20,24,23,22,22,22,21,97,94,91,29.91,29.88,11,6,11,0.00
2013-2-21,29,25,21,29,24,21,100,97,91,29.91,29.44,17,5,17,0.00
2013-2-22,35,24,14,30,23,14,100,94,79,29.80,29.47,13,2,13,0.00
2013-2-23,33,19,9,28,18,9,100,95,85,29.77,29.65,8,1,8,0.00
2013-2-24,56,40,31,45,35,27,91,82,67,29.74,29.65,10,4,10,0.00
2013-2-25,38,34,27,36,31,24,100,90,79,29.68,29.32,20,6,20,0.00
2013-2-26,34,33,32,34,33,32,100,100,97,29.53,29.18,15,2,15,0.00
2013-2-27,36,32,27,35,31,26,100,96,79,29.71,29.50,17,2,17,0.00
2013-2-28,37,32,27,35,28,23,100,87,79,29.85,29.71,16,5,16,0.00
2013-3-1,33,28,25,29,26,23,100,91,85,29.97,29.88,13,4,13,0.00
2013-3-2,42,27,21,37,25,20,100,90,79,30.03,29.85,11,2,11,0.00
2013-3-3,45,34,20,40,31,20,97,89,79,29.88,29.50,4,4,4,0.00
2013-3-4,61,42,33,47,37,28,97,83,61,29.59,29.35,4,4,4,0.00
2013-3-16,47,42,37,41,38,34,91,85,79,29.77,29.56,0,0,0,0.00
2013-3-17,37,34,33,36,32,28,100,93,79,29.77,29.44,0,0,0,0.00
2013-3-18,54,42,32,45,38,28,100,87,67,29.80,29.44,0,0,0,0.00
2013-3-19,44,35,26,40,32,23,100,91,79,29.97,29.77,0,0,0,0.00
2013-3-20,38,31,22,36,28,21,100,90,79,30.12,29.85,0,0,0,0.00
2013-3-21,30,26,21,29,24,20,100,93,85,29.88,29.68,0,0,0,0.00
2013-3-22,34,33,29,34,33,29,100,100,100,29.83,29.71,0,0,0,0.00
2013-3-23,41,35,32,37,34,32,100,96,85,29.85,29.71,0,0,0,0.00
2013-3-24,33,31,24,33,30,21,100,97,85,30.00,29.62,0,0,0,0.00
2013-3-25,35,28,19,34,25,19,100,91,79,30.36,29.97,0,0,0,0.00
2013-3-26,47,30,18,41,28,18,100,91,73,30.50,30.36,0,0,0,0.00
2013-3-27,52,38,23,43,34,22,100,85,73,30.56,30.45,0,0,0,0.00
2013-3-28,70,54,36,50,43,34,91,68,49,30.59,30.50,0,0,0,0.00
2013-3-29,69,55,39,49,44,38,100,69,49,30.71,30.59,0,0,0,0.00
2013-3-30,65,52,46,58,48,40,100,86,55,30.68,30.50,0,0,0,0.08
2013-3-31,72,56,44,54,47,38,100,74,43,30.71,30.56,11,3,11,0.00
2013-4-1,49,42,30,42,37,26,97,83,73,31.01,30.71,5,5,5,0.00
2013-4-2,52,39,27,44,34,23,91,82,73,31.01,31.01,0,0,0,0.00
2013-4-3,54,43,31,45,37,27,91,80,67,31.01,31.01,0,0,0,0.00
2013-4-4,64,49,38,49,41,35,91,75,55,31.01,30.95,0,0,0,0.00
2013-4-5,72,56,36,51,44,34,91,66,43,31.01,30.83,0,0,0,0.00
2013-4-6,74,62,53,59,47,43,73,57,43,30.83,30.65,0,0,0,0.00
2013-4-7,74,61,46,59,47,40,100,60,43,30.83,30.62,16,3,16,0.00
2013-4-8,76,66,57,59,51,46,100,62,43,30.74,30.62,17,5,17,0.00
2013-4-9,73,68,65,51,49,46,55,50,43,30.77,30.62,17,6,17,0.00
2013-4-10,71,49,41,66,45,41,100,89,49,30.92,30.68,25,5,25,0.94
2013-4-11,45,38,33,41,36,28,100,92,79,30.80,30.71,17,4,17,0.00
2013-4-12,54,39,29,45,35,27,100,88,67,31.01,30.77,14,3,14,0.00
2013-4-13,66,51,31,49,42,31,100,73,55,31.01,30.77,13,2,13,0.00
2013-4-14,77,65,56,62,50,44,100,62,43,30.77,30.53,28,10,28,0.16
2013-4-15,60,50,44,50,44,38,100,79,61,31.01,30.74,15,4,15,0.28
2013-4-16,47,44,40,42,39,36,100,83,79,31.01,31.01,18,8,18,0.04
2013-4-17,76,55,46,66,53,40,100,95,49,31.01,30.65,21,4,21,0.67
2013-4-18,51,42,37,51,40,35,100,93,85,30.95,30.53,19,6,19,1.02
2013-4-19,56,43,33,45,37,28,97,80,67,31.01,30.92,18,6,18,0.00
2013-4-20,60,48,29,47,40,25,97,73,61,31.01,31.01,11,4,11,0.00
2013-4-21,69,57,45,49,44,39,79,64,49,31.01,31.01,23,7,23,0.00
2013-4-22,72,60,48,51,46,40,79,61,49,31.01,30.95,17,5,17,0.00
2013-4-23,56,38,35,51,38,35,100,98,67,31.01,31.01,22,7,22,0.47
2013-4-24,57,43,30,46,38,30,100,85,67,31.01,31.01,15,4,15,0.00
2013-4-25,72,56,34,51,44,33,100,66,49,31.01,31.01,13,3,13,0.00
2013-4-26,58,51,48,51,46,41,100,86,61,31.01,31.01,23,5,23,0.28
2013-4-27,56,50,47,56,50,47,100,99,79,31.01,31.01,10,3,10,0.12
2013-4-28,76,57,45,61,48,45,100,77,37,31.01,30.86,13,2,13,0.00
2013-4-29,83,70,54,61,53,44,67,54,43,30.89,30.74,18,9,18,0.00
2013-4-30,83,73,63,61,53,46,55,51,43,30.92,30.74,23,10,23,0.00
2013-5-1,88,71,49,62,53,41,73,54,37,31.01,30.89,19,6,19,0.00
2013-5-2,49,41,32,42,38,32,100,89,73,31.01,31.01,19,7,19,0.20
2013-5-3,35,33,32,35,33,32,100,100,100,31.01,31.01,16,1,16,0.00
2013-5-4,50,46,41,44,40,37,100,80,73,31.01,30.98,8,2,8,0.55
2013-5-5,70,54,44,53,47,38,100,82,49,31.01,31.01,14,2,14,0.00
2013-5-6,77,62,50,58,50,44,100,69,37,31.01,31.01,10,2,10,0.00
2013-5-7,89,68,50,68,54,46,100,66,37,31.01,31.01,9,1,9,0.00
2013-5-8,74,65,57,63,49,44,100,58,43,31.01,30.98,19,4,19,0.04
2013-5-9,87,66,58,67,60,46,100,84,37,31.01,30.92,15,2,15,0.35
2013-5-10,70,59,52,60,53,43,100,83,49,31.01,30.98,12,2,12,0.00
2013-5-11,72,60,44,63,48,38,100,69,43,31.01,31.01,18,3,18,0.00
2013-5-12,75,52,36,51,42,34,91,72,43,31.01,31.01,10,1,10,0.00
2013-5-13,81,66,46,61,49,40,97,57,37,31.01,31.01,14,6,14,0.00
2013-5-14,91,77,61,62,55,46,61,48,37,31.01,30.92,25,9,25,0.00
2013-5-15,90,75,63,62,55,46,85,51,37,31.01,30.95,16,9,16,0.00
2013-5-16,87,69,61,74,59,46,100,75,43,31.01,30.92,16,3,16,0.00
2013-5-17,67,61,57,66,61,57,100,100,97,31.01,30.95,8,2,8,0.00
2013-5-18,80,76,74,61,58,57,55,55,49,30.95,30.89,17,5,17,0.00
2013-5-19,86,73,60,74,59,46,100,64,43,30.98,30.74,30,8,30,1.02
2013-5-20,78,66,59,71,61,53,100,87,55,30.92,30.77,24,7,24,1.61
2013-5-21,64,61,58,64,60,52,100,98,73,30.89,30.80,10,3,10,0.00
2013-5-24,62,60,60,48,47,46,61,61,61,31.01,31.01,8,2,8,0.00
2013-5-25,83,70,58,62,53,44,79,56,43,31.01,31.01,19,7,19,0.20
2013-5-26,84,78,73,61,59,56,61,51,43,31.01,31.01,19,8,19,0.20
2013-5-27,73,68,61,70,59,47,100,75,49,31.01,30.98,20,5,20,2.01
2013-5-28,79,72,69,73,63,56,100,74,49,31.01,30.86,22,8,22,0.08
2013-5-29,84,76,64,71,60,48,100,60,43,31.01,30.92,24,10,24,0.04
2013-5-30,73,65,62,70,63,55,100,95,61,31.01,30.89,26,10,26,0.87
2013-5-31,84,66,59,72,64,57,100,94,43,31.01,30.98,17,4,17,1.50
2013-6-1,85,69,57,69,56,46,100,68,37,31.01,31.01,15,2,15,1.42
2013-6-2,70,60,50,58,49,43,100,68,49,31.01,31.01,10,2,10,1.42
2013-6-3,80,64,46,62,50,46,100,65,37,31.01,31.01,14,2,14,1.42
2013-6-4,73,66,59,71,60,54,100,84,55,31.01,17.72,14,4,14,1.42
2013-6-5,71,64,59,70,64,59,100,100,100,17.72,17.72,9,1,9,1.42
2013-6-6,86,71,60,69,61,48,100,75,37,17.72,17.72,10,2,10,0.00
2013-6-7,83,67,54,66,53,44,100,64,37,17.72,17.72,10,1,10,0.00
2013-6-8,81,70,55,63,56,44,100,63,37,17.72,17.72,16,6,16,0.00
2013-6-9,92,71,61,70,59,47,100,70,37,17.72,17.72,15,4,15,0.43
2013-6-10,98,76,58,71,59,54,100,61,25,17.72,17.72,10,1,10,0.00
2013-6-11,93,81,70,74,61,56,100,55,31,17.72,17.72,21,9,21,0.00
2013-6-12,98,84,74,75,61,55,100,50,25,17.72,17.72,26,8,26,0.00
2013-6-13,93,79,62,62,57,46,79,48,31,17.72,17.72,15,2,15,0.00
2013-6-14,82,68,64,72,64,56,100,90,49,17.72,17.72,11,1,11,0.00
2013-6-15,88,74,66,78,64,56,100,75,37,17.72,17.72,43,7,43,0.59
2013-6-16,92,76,66,77,66,56,100,76,31,17.72,17.72,11,2,11,0.00
2013-6-17,78,70,65,75,68,57,100,96,55,17.72,17.72,23,2,23,0.98
2013-6-18,99,78,63,82,62,55,100,65,25,17.72,17.72,12,1,12,0.00
2013-6-19,94,79,63,75,61,56,100,60,31,17.72,17.72,13,3,13,0.00
2013-6-20,89,80,68,73,62,58,100,59,37,17.72,17.72,19,7,19,0.00
2013-6-21,93,83,75,72,61,56,85,50,31,17.72,17.72,21,11,21,0.00
2013-6-22,93,87,78,67,60,56,67,41,31,17.72,17.72,22,9,22,0.00
2013-6-23,93,82,74,75,63,56,100,55,31,17.72,17.72,21,9,21,0.00
2013-6-24,93,81,73,75,64,56,100,62,31,17.72,17.72,22,10,22,0.00
2013-6-25,89,82,77,73,60,58,85,49,37,17.72,17.72,28,10,28,0.00
2013-6-26,108,90,73,74,59,51,100,40,19,17.72,17.72,15,4,15,0.00
2013-6-27,104,79,69,77,62,51,100,60,19,17.72,17.72,30,2,30,0.67
2013-6-28,98,81,66,84,62,48,100,58,25,17.72,17.72,17,2,17,0.00
2013-6-29,93,77,62,62,57,46,85,51,31,17.72,17.72,20,4,20,0.00
2013-6-30,86,70,60,61,56,47,100,62,43,17.72,17.72,13,3,13,0.00
2013-7-1,88,74,60,62,54,46,79,50,37,17.72,17.72,11,3,11,0.00
2013-7-2,91,75,57,62,54,44,79,50,31,17.72,17.72,12,2,12,0.00
2013-7-3,97,73,60,62,53,46,79,51,25,17.72,17.72,15,2,15,0.00
2013-7-4,92,74,56,66,57,46,100,58,37,17.72,17.72,14,4,14,0.00
2013-7-5,93,77,63,62,57,46,73,51,31,17.72,17.72,14,6,14,0.00
2013-7-6,92,78,67,67,59,47,97,53,31,17.72,17.72,19,7,19,0.00
2013-7-7,91,80,68,69,59,49,97,51,37,17.72,17.72,19,8,19,0.00
2013-7-8,94,78,72,62,59,56,61,52,31,17.72,17.72,16,7,16,0.00
2013-7-11,72,71,69,51,50,48,49,47,43,0.00,0.00,3,0,3,0.00
2013-7-12,94,78,65,62,58,48,85,51,31,0.00,0.00,14,3,14,0.00
2013-7-13,89,76,66,62,55,47,67,49,37,0.00,0.00,13,4,13,0.00
2013-7-14,96,80,62,70,60,51,100,54,31,29.21,0.00,15,2,15,0.00
2013-7-15,98,80,68,74,62,55,100,60,25,29.26,29.21,10,1,10,0.00
2013-7-16,100,84,70,77,62,55,100,53,25,29.38,29.26,12,3,12,0.00
2013-7-17,104,86,73,77,60,51,100,44,19,29.41,29.29,11,2,11,0.00
2013-7-18,108,86,71,75,62,51,100,54,19,29.29,29.12,13,1,13,0.00
2013-7-19,109,90,72,74,59,51,100,38,19,29.12,29.00,13,3,13,0.00
2013-7-20,104,82,74,78,62,51,100,54,19,29.03,28.97,10,2,10,0.00
2013-7-21,92,80,70,74,63,56,100,60,37,29.03,28.91,15,4,15,0.00
2013-7-22,96,82,69,79,63,56,100,58,31,28.97,28.88,15,4,15,0.00
2013-7-23,94,82,71,77,63,56,100,57,31,29.00,28.91,12,3,12,0.00
2013-7-24,93,78,66,62,58,48,85,50,31,29.12,29.00,12,2,12,0.00
2013-7-25,99,77,63,65,58,48,100,55,25,29.21,29.09,10,2,10,0.00
2013-7-26,86,75,67,75,62,47,100,68,43,29.15,29.06,10,2,10,0.04
2013-7-27,89,72,56,62,55,46,100,58,37,29.18,29.06,13,2,13,0.00
2013-7-28,89,69,56,62,52,44,79,54,37,29.18,29.09,11,1,11,0.00
2013-7-29,69,65,62,69,58,46,100,83,49,29.18,29.15,7,0,7,0.20
2013-7-30,75,74,74,75,74,74,100,100,100,29.18,29.15,6,1,6,0.20
2013-7-31,84,74,67,76,70,58,100,90,43,29.21,29.15,8,1,8,0.00
2013-8-1,99,80,64,79,62,55,100,63,25,29.21,29.06,10,1,10,0.00
2013-8-2,88,75,70,79,68,56,100,84,37,29.06,28.97,21,3,21,0.20
2013-8-3,87,76,70,75,68,58,100,82,43,29.21,29.00,10,1,10,0.00
2013-8-4,73,70,66,73,69,56,100,95,61,29.23,29.15,8,1,8,0.51
2013-8-5,92,78,70,83,70,57,100,81,31,29.15,28.94,10,2,10,0.00
2013-8-6,95,80,70,82,70,56,100,77,31,29.00,28.91,17,4,17,0.28
2013-8-7,94,78,70,81,70,56,100,80,31,29.03,28.88,24,2,24,0.28
2013-8-8,82,72,67,75,69,58,100,91,49,29.09,29.00,12,1,12,0.00
2013-8-9,76,71,66,76,71,66,100,100,100,29.18,29.06,8,0,8,0.00
2013-8-10,91,78,66,62,59,56,85,53,37,29.26,29.18,8,1,8,0.00
2013-8-11,94,76,59,74,62,56,100,66,31,29.21,29.15,10,1,10,0.00
2013-8-12,93,76,69,86,68,56,100,81,31,29.15,29.03,10,1,10,0.83
2013-8-13,89,72,65,74,63,48,100,78,37,29.18,29.06,10,1,10,0.00
2013-8-14,76,66,61,67,58,46,100,80,37,29.21,29.15,6,0,6,0.00
2013-8-15,83,68,58,64,56,47,100,69,37,29.21,29.09,12,3,12,0.00
2013-8-16,83,69,58,67,56,46,100,65,37,29.23,29.15,8,1,8,0.00
2013-8-17,85,70,54,69,57,46,100,67,37,29.26,29.18,8,1,8,0.00
2013-8-18,92,74,57,70,59,48,100,61,31,29.23,29.18,11,2,11,0.00
2013-8-19,89,74,61,74,62,56,100,69,37,29.18,29.12,16,3,16,0.00
2013-8-20,92,78,65,74,62,56,100,64,31,29.15,29.09,14,6,14,0.00
2013-8-21,94,79,66,75,64,56,100,65,31,29.18,29.09,14,5,14,0.00
2013-8-22,99,82,69,76,64,56,100,61,25,29.18,29.12,11,3,11,0.00
2013-8-23,99,81,68,82,65,55,100,67,25,29.18,29.12,13,2,13,0.00
2013-8-24,95,81,71,79,65,56,100,63,31,29.23,29.15,15,5,15,0.00
2013-8-25,98,82,68,79,63,55,100,58,25,29.29,29.21,14,5,14,0.00
2013-8-26,100,83,71,79,64,55,100,58,25,29.26,29.12,15,7,15,0.00
2013-8-27,99,82,69,77,63,55,100,59,25,29.18,29.06,17,6,17,0.00
2013-8-28,104,83,68,76,62,51,100,56,19,29.15,29.06,13,3,13,0.00
2013-8-29,100,84,71,81,65,55,100,60,25,29.15,29.03,14,4,14,0.00
2013-8-30,104,86,73,79,64,51,100,55,19,29.06,28.94,17,6,17,0.00
2013-8-31,98,83,75,76,64,55,100,57,25,28.94,28.88,13,3,13,0.00
2013-9-1,100,78,68,78,66,48,100,73,19,29.06,28.85,25,2,25,0.47
2013-9-2,93,73,62,69,59,47,100,64,31,29.12,29.00,10,1,10,0.00
2013-9-3,97,73,57,68,58,46,100,64,31,29.18,29.09,8,1,8,0.00
2013-9-4,98,75,57,71,57,46,100,59,25,29.23,29.12,8,0,8,0.00
2013-9-5,97,76,59,69,57,46,100,54,25,29.29,29.18,10,1,10,0.00
2013-9-6,97,77,61,69,59,47,100,57,31,29.23,29.06,13,3,13,0.00
2013-9-7,95,80,66,69,59,50,100,53,31,29.09,28.97,15,7,15,0.00
2013-9-8,104,86,73,62,59,51,61,43,19,29.00,28.94,15,6,15,0.08
2013-9-9,100,85,72,62,59,51,61,43,19,29.03,28.97,20,7,20,0.08
2013-9-10,99,82,69,69,60,51,97,51,25,29.15,29.03,22,7,22,0.08
2013-9-13,70,63,59,50,47,45,61,57,49,29.15,29.12,3,0,3,0.00
2013-9-14,86,65,48,61,49,40,91,57,37,29.18,29.03,14,3,14,0.00
2013-9-15,85,70,62,70,54,46,100,59,37,29.21,29.03,15,6,15,1.18
2013-9-16,65,62,60,65,62,60,100,100,100,29.32,29.21,11,3,11,1.14
2013-9-17,70,65,61,70,65,61,100,100,100,29.26,29.06,14,2,14,1.14
2013-9-18,89,75,67,77,66,58,100,79,37,29.09,28.94,20,9,20,1.14
2013-9-19,94,79,67,75,65,56,100,69,31,29.03,28.85,25,9,25,1.14
2013-9-20,73,65,55,68,56,45,100,76,43,29.12,28.97,15,2,15,0.04
2013-9-21,85,62,48,61,50,44,100,71,37,29.12,29.00,8,1,8,0.04
2013-9-22,83,63,51,61,51,43,100,67,37,29.06,28.97,12,2,12,0.20
2013-9-23,83,65,52,61,52,46,100,68,37,29.03,28.91,15,4,15,0.00
2013-9-24,78,66,58,66,54,47,100,69,37,28.94,28.88,15,5,15,0.00
2013-9-25,74,64,57,69,61,56,100,91,55,28.97,28.91,8,0,8,0.00
2013-9-26,86,71,59,72,60,56,100,72,43,29.00,28.94,16,5,16,0.04
2013-9-27,89,74,65,73,62,56,100,69,37,29.06,28.94,17,7,17,0.00
2013-9-28,72,67,53,69,61,53,100,83,61,29.18,28.91,18,8,18,0.47
2013-9-29,54,52,50,54,52,50,100,100,100,29.18,29.15,0,0,0,0.00
2013-9-30,76,64,48,70,60,48,100,88,55,29.00,28.94,13,5,13,0.00
2013-10-1,86,70,61,73,62,56,100,80,43,29.09,28.97,13,4,13,0.00
2013-10-2,93,72,62,77,67,57,100,88,31,29.09,29.00,15,3,15,0.00
2013-10-3,85,75,68,78,66,58,100,78,43,29.00,28.91,21,8,21,0.00
2013-10-4,88,76,68,77,66,58,100,75,37,29.00,28.88,24,9,24,0.00
2013-10-5,74,56,46,70,50,40,100,81,49,29.09,29.00,11,2,11,0.16
2013-10-6,64,52,40,48,44,38,100,76,55,29.06,28.91,20,3,20,0.00
2013-10-7,83,56,41,61,46,41,100,73,37,29.18,29.03,8,1,8,0.00
2013-10-8,77,60,48,60,49,44,100,71,43,29.18,29.09,17,6,17,0.00
2013-10-9,80,61,48,61,50,44,100,72,37,29.18,29.12,13,4,13,0.00
2013-10-10,80,63,51,61,53,46,100,74,37,29.15,29.00,17,5,17,0.00
2013-10-11,77,68,58,69,60,52,100,77,55,29.00,28.88,23,9,23,0.00
2013-10-12,80,60,50,68,51,43,100,74,37,29.32,28.94,13,2,13,0.12
2013-10-13,77,57,44,60,45,38,85,65,37,29.44,29.32,10,1,10,0.00
2013-10-14,69,58,49,62,48,41,100,71,49,29.35,29.00,19,5,19,0.04
2013-10-15,70,57,42,61,50,38,100,80,49,29.15,28.94,22,3,22,0.16
2013-10-16,69,50,37,50,44,37,100,83,49,29.15,29.03,10,1,10,0.00
2013-10-17,73,54,42,51,46,40,100,78,43,29.09,28.97,15,3,15,0.04
2013-10-18,55,43,36,45,40,36,100,92,67,29.21,29.06,10,2,10,0.16
2013-10-19,60,38,34,46,37,34,100,96,61,29.15,28.97,14,2,14,0.00
2013-10-20,61,56,49,47,45,41,73,65,61,29.00,28.94,10,3,10,0.00
2013-10-21,62,49,40,49,42,8,85,77,61,29.18,29.00,12,3,12,0.00
2013-10-22,67,51,38,49,42,35,91,73,49,29.15,28.97,20,6,20,0.00
2013-10-23,56,42,30,46,38,30,100,86,67,29.23,29.12,10,1,10,0.00
2013-10-24,58,42,32,46,37,28,100,84,61,29.47,29.21,15,2,15,0.00
2013-10-25,58,42,26,46,36,26,100,83,67,29.53,29.23,17,5,17,0.00
2013-10-26,70,49,38,50,41,35,91,75,49,29.23,29.15,11,4,11,0.00
2013-10-27,68,46,29,49,39,28,100,79,49,29.23,29.03,15,3,15,0.00
2013-10-28,63,48,36,56,44,34,100,87,55,29.21,29.06,13,3,13,0.00
2013-10-29,64,58,49,64,58,49,100,100,100,29.21,29.00,11,3,11,0.83
2013-10-30,68,65,62,68,65,62,100,100,100,29.06,28.85,28,9,28,0.67
2013-10-31,63,62,62,63,62,62,100,100,100,28.85,28.70,15,8,15,0.08
2013-11-1,72,51,40,51,44,38,100,79,43,29.03,28.76,13,2,13,0.00
2013-11-2,46,42,40,45,42,40,100,99,97,29.18,29.00,10,2,10,0.00
2013-11-5,60,58,53,60,58,53,100,100,100,29.18,28.91,18,10,18,0.71
2013-11-6,58,41,32,58,40,32,100,96,79,29.38,28.94,18,4,18,0.28
2013-11-7,63,41,30,49,38,30,100,88,55,29.44,29.35,15,2,15,0.00
2013-11-8,62,42,34,48,37,33,97,86,61,29.38,29.18,22,6,22,0.00
2013-11-9,47,47,47,45,45,45,91,91,91,29.15,29.15,0,0,0,0.00
2013-11-10,63,54,48,49,44,40,73,69,55,29.47,29.26,8,1,8,0.00
2013-11-11,69,49,29,52,41,25,100,76,49,29.62,29.21,18,6,18,0.00
2013-11-12,41,26,17,37,24,17,100,91,73,29.85,29.62,16,4,16,0.00
2013-11-13,47,33,19,41,30,18,97,87,73,29.71,29.26,22,8,22,0.00
2013-11-14,44,35,32,40,30,28,85,82,79,29.26,29.03,10,7,10,0.00
2013-11-15,60,50,44,50,42,38,100,75,61,29.06,28.82,19,8,19,0.00
2013-11-16,68,62,50,67,59,50,100,91,67,28.85,28.56,31,14,31,0.00
2013-11-17,72,60,42,68,52,37,100,76,43,29.12,28.47,31,9,31,0.00
2013-11-18,66,46,33,49,40,33,100,82,55,29.35,29.12,9,1,9,0.00
2013-11-19,62,48,35,49,41,33,97,77,61,29.32,29.09,19,6,19,0.00
2013-11-20,50,45,38,43,40,35,100,82,73,29.09,28.97,23,5,23,0.28
2013-11-21,52,45,31,49,43,31,100,94,73,29.41,29.03,17,4,17,0.43
2013-11-22,33,29,25,33,29,25,100,99,97,29.65,29.41,0,0,0,0.00
2013-11-23,34,25,18,29,23,18,100,93,85,29.80,29.62,15,2,15,0.00
2013-11-24,30,24,18,26,21,18,97,91,85,29.77,29.38,10,5,10,0.00
2013-11-25,40,32,26,36,27,23,100,83,73,29.38,29.23,13,4,13,0.00
2013-11-26,40,30,20,37,27,20,100,91,73,29.41,29.18,21,6,21,0.00
2013-11-27,42,24,13,38,22,13,100,93,79,29.47,29.32,10,3,10,0.00
2013-11-28,54,37,24,45,32,21,91,83,67,29.53,29.32,11,3,11,0.00
2013-11-29,52,35,21,44,32,20,100,87,73,29.53,29.32,12,4,12,0.00
2013-11-30,59,42,33,46,36,28,100,81,61,29.32,29.15,13,4,13,0.00
2013-12-1,62,41,27,49,38,27,100,89,61,29.18,28.94,8,0,8,0.00
2013-12-2,49,42,34,49,42,33,100,100,91,28.94,28.67,14,5,14,0.00
2013-12-3,60,48,39,56,46,39,100,94,61,28.70,28.61,15,5,15,0.00
2013-12-4,53,41,24,53,41,24,100,100,97,29.06,28.59,16,6,16,0.00
2013-12-5,25,21,18,25,20,18,100,96,91,29.38,29.06,17,6,17,0.00
2013-12-6,21,16,9,20,16,9,100,99,97,29.65,29.38,17,6,17,0.00
2013-12-7,25,14,4,23,13,4,100,98,91,29.71,29.41,12,4,12,0.04
2013-12-8,20,20,19,20,19,18,100,97,97,29.41,29.18,10,5,10,0.00
2013-12-18,55,55,55,44,44,44,67,67,67,28.88,28.88,14,14,14,0.00
2013-12-21,32,29,28,6,3,2,35,32,30,28.76,28.61,13,5,13,2.87
2013-12-22,29,23,13,4,-8,-18,36,26,16,29.38,28.73,12,3,12,0.00
2013-12-23,18,11,3,-17,-23,-32,24,20,16,29.62,29.38,8,2,10,0.00
2013-12-24,27,16,2,3,-19,-33,36,20,14,29.59,29.23,11,3,11,0.00
2013-12-25,37,31,25,6,1,-10,38,29,14,29.35,29.26,10,2,10,0.00
2013-12-26,47,33,22,8,-2,-9,36,24,12,29.35,29.23,22,5,22,0.04
2013-12-27,54,38,25,17,1,-8,61,24,10,29.35,29.23,13,6,13,0.04
2013-12-28,55,42,32,0,-5,-10,15,13,10,29.23,28.94,19,8,20,0.00
2013-12-29,38,21,9,-7,-19,-27,17,15,13,29.35,28.94,18,7,20,0.00
2013-12-30,28,17,6,-16,-22,-29,17,15,13,29.35,29.21,13,4,15,0.00
2013-12-31,49,33,15,-2,-12,-23,23,14,11,29.35,29.15,22,7,22,0.00
2014-1-1,36,25,12,-9,-17,-25,19,14,12,29.26,29.09,21,6,21,0.00
2014-1-2,27,9,0,-16,-27,-35,17,17,14,29.47,29.26,13,4,15,0.00